createdAt,value
2022-11-14T00:00:49.999Z,28.67
2022-11-14T00:03:19.867Z,29.10
2022-11-14T00:05:50.111Z,28.42
2022-11-14T00:08:26.183Z,29.60
2022-11-14T00:10:56.145Z,30.38
2022-11-14T00:13:26.073Z,27.45
2022-11-14T00:15:56.504Z,32.40
2022-11-14T00:18:27.443Z,30.25
2022-11-14T00:20:57.582Z,28.48
2022-11-14T00:23:30.029Z,28.13
2022-11-14T00:25:59.847Z,29.95
2022-11-14T00:28:29.959Z,28.55
2022-11-14T00:31:00.088Z,28.45
2022-11-14T00:33:29.987Z,28.45
2022-11-14T00:36:00.200Z,30.65
2022-11-14T00:38:32.807Z,30.48
2022-11-14T00:41:02.754Z,29.73
2022-11-14T00:43:32.652Z,30.15
2022-11-14T00:46:02.551Z,30.80
2022-11-14T00:48:32.678Z,30.73
2022-11-14T00:51:02.700Z,27.85
2022-11-14T00:53:35.155Z,29.50
2022-11-14T00:56:05.390Z,29.13
2022-11-14T00:58:35.287Z,30.08
2022-11-14T01:01:05.201Z,28.83
2022-11-14T01:03:35.083Z,29.25
2022-11-14T01:06:08.870Z,29.70
2022-11-14T01:08:41.281Z,30.63
2022-11-14T01:11:14.562Z,30.95
2022-11-14T01:13:44.695Z,29.85
2022-11-14T01:16:14.722Z,30.30
2022-11-14T01:18:44.820Z,29.63
2022-11-14T01:21:16.710Z,30.90
2022-11-14T01:23:49.124Z,29.38
2022-11-14T01:26:18.962Z,31.42
2022-11-14T01:28:48.846Z,30.65
2022-11-14T01:31:23.531Z,30.77
2022-11-14T01:33:54.386Z,28.30
2022-11-14T01:36:24.976Z,29.73
2022-11-14T01:39:00.231Z,30.10
2022-11-14T01:41:30.081Z,29.02
2022-11-14T01:44:00.000Z,29.20
2022-11-14T01:46:34.468Z,30.67
2022-11-14T01:49:13.563Z,29.77
2022-11-14T01:51:48.051Z,29.33
2022-11-14T01:54:26.006Z,27.38
2022-11-14T01:56:59.516Z,29.05
2022-11-14T01:59:43.772Z,30.92
2022-11-14T02:02:19.986Z,27.40
2022-11-14T02:04:54.678Z,30.95
2022-11-14T02:07:26.906Z,29.13
2022-11-14T02:10:00.301Z,30.52
2022-11-14T02:12:30.471Z,30.23
2022-11-14T02:15:01.798Z,29.05
2022-11-14T02:17:31.702Z,29.30
2022-11-14T02:20:19.864Z,29.30
2022-11-14T02:22:49.694Z,30.23
2022-11-14T02:25:21.527Z,30.70
2022-11-14T02:27:52.240Z,28.17
2022-11-14T02:30:25.301Z,28.98
2022-11-14T02:33:10.475Z,28.13
2022-11-14T02:35:43.291Z,28.40
2022-11-14T02:38:13.304Z,28.88
2022-11-14T02:40:43.150Z,30.40
2022-11-14T02:43:13.025Z,28.67
2022-11-14T02:45:42.866Z,29.80
2022-11-14T02:48:12.722Z,29.42
2022-11-14T02:50:45.484Z,30.50
2022-11-14T02:53:15.322Z,27.23
2022-11-14T02:55:45.325Z,28.92
2022-11-14T02:58:15.149Z,30.20
2022-11-14T03:01:13.446Z,29.98
2022-11-14T03:03:34.887Z,30.25
2022-11-14T03:06:08.064Z,30.08
2022-11-14T03:08:37.923Z,32.65
2022-11-14T03:11:08.332Z,30.02
2022-11-14T03:13:38.805Z,31.90
2022-11-14T03:16:10.180Z,29.52
2022-11-14T03:18:40.447Z,30.80
2022-11-14T03:21:15.948Z,30.90
2022-11-14T03:23:45.840Z,29.63
2022-11-14T03:26:19.007Z,30.33
2022-11-14T03:28:48.863Z,30.67
2022-11-14T03:31:18.713Z,31.95
2022-11-14T03:33:48.528Z,29.58
2022-11-14T03:36:21.547Z,29.77
2022-11-14T03:38:51.380Z,30.05
2022-11-14T03:41:21.220Z,29.98
2022-11-14T03:43:51.046Z,33.95
2022-11-14T03:46:20.927Z,31.73
2022-11-14T03:48:50.839Z,29.20
2022-11-14T03:51:23.271Z,30.30
2022-11-14T03:53:53.126Z,29.85
2022-11-14T03:56:22.964Z,29.73
2022-11-14T03:58:52.768Z,31.23
2022-11-14T04:01:22.720Z,31.83
2022-11-14T04:03:52.760Z,29.90
2022-11-14T04:06:25.459Z,27.77
2022-11-14T04:08:56.738Z,30.13
2022-11-14T04:11:26.622Z,29.45
2022-11-14T04:13:56.462Z,29.02
2022-11-14T04:16:26.393Z,30.80
2022-11-14T04:18:56.264Z,31.30
2022-11-14T04:21:28.715Z,30.15
2022-11-14T04:23:58.561Z,31.42
2022-11-14T04:26:28.416Z,33.85
2022-11-14T04:28:58.284Z,29.05
2022-11-14T04:31:28.090Z,30.35
2022-11-14T04:33:57.918Z,32.35
2022-11-14T04:36:30.340Z,32.45
2022-11-14T04:39:00.200Z,31.17
2022-11-14T04:41:30.162Z,32.08
2022-11-14T04:44:00.000Z,32.08
2022-11-14T04:46:29.837Z,32.08
2022-11-14T04:48:59.654Z,31.45
2022-11-14T04:51:32.091Z,31.13
2022-11-14T04:54:01.931Z,29.02
2022-11-14T04:56:31.815Z,29.25
2022-11-14T04:59:01.631Z,30.42
2022-11-14T05:01:31.666Z,29.17
2022-11-14T05:04:01.656Z,31.10
2022-11-14T05:06:34.080Z,30.92
2022-11-14T05:09:03.947Z,29.63
2022-11-14T05:11:33.795Z,30.98
2022-11-14T05:14:03.640Z,28.45
2022-11-14T05:16:33.471Z,31.05
2022-11-14T05:19:03.548Z,30.52
2022-11-14T05:21:36.033Z,27.88
2022-11-14T05:24:06.168Z,28.98
2022-11-14T05:26:36.000Z,27.90
2022-11-14T05:29:06.162Z,29.15
2022-11-14T05:31:35.984Z,31.52
2022-11-14T05:34:05.876Z,30.48
2022-11-14T05:36:38.298Z,30.17
2022-11-14T05:39:08.147Z,30.38
2022-11-14T05:41:37.982Z,30.15
2022-11-14T05:44:08.799Z,34.08
2022-11-14T05:46:38.789Z,29.67
2022-11-14T05:49:08.639Z,30.50
2022-11-14T05:51:41.138Z,30.48
2022-11-14T05:54:11.203Z,30.98
2022-11-14T05:56:41.232Z,32.28
2022-11-14T05:59:11.097Z,30.17
2022-11-14T06:01:41.047Z,30.20
2022-11-14T06:04:11.008Z,29.17
2022-11-14T06:06:43.636Z,32.05
2022-11-14T06:09:13.618Z,31.20
2022-11-14T06:11:43.571Z,30.60
2022-11-14T06:14:13.470Z,31.80
2022-11-14T06:16:43.338Z,31.42
2022-11-14T06:19:13.262Z,31.92
2022-11-14T06:21:45.677Z,31.92
2022-11-14T06:24:15.535Z,33.08
2022-11-14T06:26:45.416Z,30.88
2022-11-14T06:29:15.574Z,29.55
2022-11-14T06:31:45.450Z,33.72
2022-11-14T06:34:15.721Z,29.88
2022-11-14T06:36:48.155Z,30.42
2022-11-14T06:39:17.996Z,30.23
2022-11-14T06:41:47.853Z,30.38
2022-11-14T06:44:17.999Z,29.15
2022-11-14T06:46:47.832Z,28.65
2022-11-14T06:49:17.957Z,30.98
2022-11-14T06:51:50.372Z,28.42
2022-11-14T06:54:20.547Z,28.10
2022-11-14T06:56:50.355Z,28.20
2022-11-14T06:59:20.482Z,30.08
2022-11-14T07:01:50.335Z,28.35
2022-11-14T07:04:20.435Z,27.83
2022-11-14T07:06:52.955Z,28.23
2022-11-14T07:09:22.791Z,28.88
2022-11-14T07:11:52.643Z,27.20
2022-11-14T07:14:22.473Z,26.98
2022-11-14T07:16:52.335Z,29.10
2022-11-14T07:19:22.194Z,28.88
2022-11-14T07:21:54.595Z,29.40
2022-11-14T07:24:24.467Z,29.83
2022-11-14T07:26:54.319Z,28.65
2022-11-14T07:29:24.210Z,27.25
2022-11-14T07:31:54.037Z,29.23
2022-11-14T07:34:23.878Z,25.55
2022-11-14T07:36:57.736Z,25.65
2022-11-14T07:39:27.675Z,28.50
2022-11-14T07:41:57.527Z,27.25
2022-11-14T07:44:27.404Z,26.30
2022-11-14T07:46:57.259Z,30.73
2022-11-14T07:49:27.128Z,30.55
2022-11-14T07:51:59.571Z,29.30
2022-11-14T07:54:30.100Z,27.42
2022-11-14T07:56:59.936Z,29.20
2022-11-14T07:59:29.763Z,27.63
2022-11-14T08:01:59.610Z,27.70
2022-11-14T08:04:29.430Z,25.35
2022-11-14T08:07:01.941Z,27.02
2022-11-14T08:09:31.866Z,25.63
2022-11-14T08:12:01.791Z,26.52
2022-11-14T08:14:31.645Z,26.45
2022-11-14T08:17:01.504Z,25.85
2022-11-14T08:19:31.341Z,26.83
2022-11-14T08:22:03.837Z,25.00
2022-11-14T08:24:33.723Z,24.27
2022-11-14T08:27:03.624Z,25.67
2022-11-14T08:29:33.510Z,26.02
2022-11-14T08:32:03.399Z,27.13
2022-11-14T08:34:33.244Z,27.30
2022-11-14T08:37:06.265Z,24.40
2022-11-14T08:39:36.139Z,26.85
2022-11-14T08:42:06.313Z,25.98
2022-11-14T08:44:36.134Z,27.77
2022-11-14T08:47:06.055Z,28.25
2022-11-14T08:49:35.877Z,28.95
2022-11-14T08:52:12.323Z,28.45
2022-11-14T08:54:45.587Z,27.88
2022-11-14T08:57:15.516Z,27.77
2022-11-14T08:59:45.463Z,30.58
2022-11-14T09:02:16.405Z,25.42
2022-11-14T09:04:46.320Z,26.35
2022-11-14T09:07:18.894Z,25.73
2022-11-14T09:09:48.797Z,25.23
2022-11-14T09:12:18.685Z,25.67
2022-11-14T09:14:48.549Z,27.02
2022-11-14T09:17:18.679Z,24.98
2022-11-14T09:19:48.506Z,25.02
2022-11-14T09:22:21.206Z,27.67
2022-11-14T09:24:52.193Z,27.40
2022-11-14T09:27:22.168Z,23.65
2022-11-14T09:29:52.035Z,25.40
2022-11-14T09:32:21.835Z,27.00
2022-11-14T09:34:51.726Z,24.52
2022-11-14T09:37:24.150Z,23.25
2022-11-14T09:39:54.044Z,26.17
2022-11-14T09:42:42.844Z,22.63
2022-11-14T09:45:16.981Z,25.77
2022-11-14T09:47:50.153Z,26.92
2022-11-14T09:50:25.916Z,25.65
2022-11-14T09:53:01.443Z,26.30
2022-11-14T09:55:37.252Z,24.38
2022-11-14T09:58:11.715Z,25.02
2022-11-14T10:00:51.499Z,23.92
2022-11-14T10:03:27.809Z,23.90
2022-11-14T10:06:22.798Z,24.73
2022-11-14T10:09:30.727Z,23.83
2022-11-14T10:12:09.334Z,22.05
2022-11-14T10:15:09.655Z,26.92
2022-11-14T10:18:05.563Z,24.27
2022-11-14T10:20:42.693Z,23.20
2022-11-14T10:23:36.021Z,24.08
2022-11-14T10:26:17.236Z,21.15
2022-11-14T10:29:11.903Z,24.38
2022-11-14T10:31:54.206Z,22.67
2022-11-14T10:34:33.314Z,22.90
2022-11-14T10:37:12.908Z,22.48
2022-11-14T10:39:48.763Z,23.13
2022-11-14T10:42:28.316Z,22.15
2022-11-14T10:45:06.706Z,21.60
2022-11-14T10:47:49.408Z,23.95
2022-11-14T10:50:23.395Z,22.50
2022-11-14T10:52:59.271Z,22.13
2022-11-14T10:55:50.094Z,23.75
2022-11-14T10:58:21.581Z,23.80
2022-11-14T11:00:51.543Z,21.10
2022-11-14T11:03:21.570Z,21.27
2022-11-14T11:05:54.925Z,22.40
2022-11-14T11:08:45.765Z,22.30
2022-11-14T11:11:29.697Z,20.98
2022-11-14T11:14:04.283Z,21.00
2022-11-14T11:16:34.239Z,20.67
2022-11-14T11:19:26.795Z,20.92
2022-11-14T11:21:56.651Z,18.88
2022-11-14T11:24:37.348Z,19.10
2022-11-14T11:27:25.277Z,19.73
2022-11-14T11:30:20.230Z,20.73
2022-11-14T11:32:50.118Z,17.05
2022-11-14T11:35:20.884Z,19.25
2022-11-14T11:37:56.647Z,19.00
2022-11-14T11:40:29.851Z,18.45
2022-11-14T11:43:37.253Z,18.15
2022-11-14T11:46:00.836Z,18.27
2022-11-14T11:48:41.826Z,18.13
2022-11-14T11:51:20.075Z,17.92
2022-11-14T11:54:00.545Z,17.17
2022-11-14T11:56:35.357Z,20.98
2022-11-14T12:01:48.572Z,18.98
2022-11-14T12:04:18.535Z,17.67
2022-11-14T12:06:55.761Z,18.83
2022-11-14T12:09:55.746Z,20.55
2022-11-14T12:12:33.621Z,17.83
2022-11-14T12:15:20.768Z,15.57
2022-11-14T12:18:19.040Z,17.95
2022-11-14T12:21:10.868Z,16.02
2022-11-14T12:24:32.612Z,15.98
2022-11-14T12:27:18.400Z,16.08
2022-11-14T12:30:13.664Z,15.90
2022-11-14T12:32:48.292Z,18.55
2022-11-14T12:35:26.740Z,15.82
2022-11-14T12:37:59.361Z,17.05
2022-11-14T12:40:32.941Z,15.77
2022-11-14T12:43:05.515Z,16.92
2022-11-14T12:46:01.780Z,13.45
2022-11-14T12:48:39.293Z,15.05
2022-11-14T12:51:51.247Z,16.42
2022-11-14T12:54:49.310Z,14.55
2022-11-14T12:57:41.882Z,14.85
2022-11-14T13:00:13.084Z,16.67
2022-11-14T13:03:07.348Z,16.20
2022-11-14T13:05:58.607Z,16.73
2022-11-14T13:08:52.347Z,14.93
2022-11-14T13:11:56.045Z,16.02
2022-11-14T13:14:38.494Z,15.23
2022-11-14T13:17:41.654Z,16.20
2022-11-14T13:20:46.639Z,15.40
2022-11-14T13:24:00.541Z,15.07
2022-11-14T13:26:56.152Z,16.02
2022-11-14T13:30:05.011Z,16.77
2022-11-14T13:33:07.786Z,14.93
2022-11-14T13:35:47.614Z,15.18
2022-11-14T13:39:08.111Z,15.43
2022-11-14T13:42:22.953Z,15.70
2022-11-14T13:45:34.892Z,14.98
2022-11-14T13:48:47.333Z,15.25
2022-11-14T13:54:18.058Z,14.15
2022-11-14T13:57:03.240Z,14.70
2022-11-14T14:00:19.981Z,14.52
2022-11-14T14:03:22.912Z,15.40
2022-11-14T14:06:13.266Z,13.70
2022-11-14T14:09:09.781Z,15.20
2022-11-14T14:11:56.074Z,17.00
2022-11-14T14:14:53.757Z,16.17
2022-11-14T14:17:35.847Z,15.10
2022-11-14T14:20:22.907Z,14.27
2022-11-14T14:23:03.025Z,15.38
2022-11-14T14:25:45.719Z,14.68
2022-11-14T14:28:28.083Z,14.05
2022-11-14T14:31:06.672Z,15.50
2022-11-14T14:33:46.872Z,14.40
2022-11-14T14:36:23.018Z,15.70
2022-11-14T14:38:53.627Z,14.40
2022-11-14T14:41:23.793Z,14.30
2022-11-14T14:43:57.541Z,15.25
2022-11-14T14:46:33.677Z,15.57
2022-11-14T14:49:07.967Z,16.60
2022-11-14T14:51:40.425Z,16.30
2022-11-14T14:54:22.452Z,15.32
2022-11-14T14:57:02.887Z,15.57
2022-11-14T14:59:36.087Z,13.75
2022-11-14T15:02:06.172Z,13.73
2022-11-14T15:04:42.271Z,14.70
2022-11-14T15:07:23.333Z,17.27
2022-11-14T15:09:58.759Z,15.93
2022-11-14T15:12:32.131Z,15.68
2022-11-14T15:15:03.736Z,15.73
2022-11-14T15:17:35.984Z,16.38
2022-11-14T15:20:25.745Z,16.45
2022-11-14T15:23:21.182Z,15.70
2022-11-14T15:28:23.895Z,17.58
2022-11-14T15:31:02.355Z,16.95
2022-11-14T15:33:35.875Z,17.02
2022-11-14T15:36:17.718Z,17.48
2022-11-14T15:39:03.628Z,17.88
2022-11-14T15:41:35.120Z,17.13
2022-11-14T15:44:05.810Z,17.20
2022-11-14T15:46:49.750Z,18.85
2022-11-14T15:49:26.923Z,17.17
2022-11-14T15:52:02.395Z,18.35
2022-11-14T15:54:34.668Z,18.45
2022-11-14T15:57:11.973Z,18.75
2022-11-14T15:59:42.423Z,18.77
2022-11-14T16:02:18.619Z,18.08
2022-11-14T16:04:48.940Z,19.05
2022-11-14T16:07:22.618Z,17.50
2022-11-14T16:09:53.057Z,19.03
2022-11-14T16:12:22.927Z,20.08
2022-11-14T16:14:52.856Z,18.85
2022-11-14T16:17:22.752Z,19.63
2022-11-14T16:19:52.578Z,21.05
2022-11-14T16:22:24.985Z,21.55
2022-11-14T16:24:54.868Z,20.67
2022-11-14T16:27:24.742Z,19.73
2022-11-14T16:29:54.677Z,18.77
2022-11-14T16:32:26.732Z,19.33
2022-11-14T16:34:56.591Z,20.00
2022-11-14T16:37:29.035Z,21.90
2022-11-14T16:39:58.923Z,19.83
2022-11-14T16:42:28.765Z,19.92
2022-11-14T16:45:03.263Z,19.35
2022-11-14T16:47:33.387Z,20.58
2022-11-14T16:50:03.269Z,19.95
2022-11-14T16:52:35.821Z,19.58
2022-11-14T16:55:05.694Z,19.30
2022-11-14T16:57:37.085Z,19.38
2022-11-14T17:00:13.354Z,19.58
2022-11-14T17:02:44.092Z,19.20
2022-11-14T17:05:14.166Z,20.17
2022-11-14T17:07:46.583Z,19.67
2022-11-14T17:10:16.493Z,20.30
2022-11-14T17:12:46.475Z,18.88
2022-11-14T17:15:16.584Z,19.80
2022-11-14T17:17:50.244Z,19.70
2022-11-14T17:20:20.493Z,18.98
2022-11-14T17:22:52.940Z,19.13
2022-11-14T17:25:22.814Z,19.90
2022-11-14T17:27:52.707Z,17.88
2022-11-14T17:30:22.736Z,18.67
2022-11-14T17:32:56.246Z,20.17
2022-11-14T17:35:26.510Z,18.90
2022-11-14T17:38:00.249Z,19.58
2022-11-14T17:40:30.595Z,19.52
2022-11-14T17:43:00.422Z,19.08
2022-11-14T17:45:30.276Z,18.38
2022-11-14T17:48:00.109Z,18.73
2022-11-14T17:50:33.163Z,19.05
2022-11-14T17:53:09.744Z,18.85
2022-11-14T17:55:39.899Z,19.17
2022-11-14T17:58:09.826Z,19.30
2022-11-14T18:00:39.816Z,18.85
2022-11-14T18:03:09.667Z,19.25
2022-11-14T18:05:39.570Z,18.40
2022-11-14T18:08:12.009Z,19.40
2022-11-14T18:10:42.069Z,19.40
2022-11-14T18:13:12.474Z,17.80
2022-11-14T18:15:42.518Z,19.35
2022-11-14T18:18:12.443Z,18.98
2022-11-14T18:20:42.311Z,19.83
2022-11-14T18:23:14.764Z,19.90
2022-11-14T18:25:44.596Z,19.20
2022-11-14T18:28:14.536Z,19.48
2022-11-14T18:30:44.391Z,19.10
2022-11-14T18:33:14.303Z,20.05
2022-11-14T18:35:44.159Z,19.52
2022-11-14T18:38:16.606Z,19.63
2022-11-14T18:40:46.892Z,19.75
2022-11-14T18:43:18.131Z,21.48
2022-11-14T18:45:48.014Z,19.67
2022-11-14T18:48:19.573Z,18.92
2022-11-14T18:50:49.563Z,21.08
2022-11-14T18:53:21.974Z,22.52
2022-11-14T18:55:53.233Z,21.55
2022-11-14T18:58:23.199Z,21.25
2022-11-14T19:00:53.198Z,21.45
2022-11-14T19:03:23.102Z,21.92
2022-11-14T19:05:55.513Z,22.20
2022-11-14T19:08:28.178Z,22.17
2022-11-14T19:11:04.425Z,22.55
2022-11-14T19:13:34.781Z,22.98
2022-11-14T19:16:05.434Z,23.25
2022-11-14T19:18:35.761Z,22.17
2022-11-14T19:21:06.747Z,20.77
2022-11-14T19:23:39.163Z,20.75
2022-11-14T19:26:12.688Z,20.58
2022-11-14T19:28:42.574Z,22.08
2022-11-14T19:31:14.070Z,24.20
2022-11-14T19:33:46.899Z,24.98
2022-11-14T19:36:45.269Z,22.02
2022-11-14T19:39:14.419Z,24.42
2022-11-14T19:41:44.384Z,23.05
2022-11-14T19:44:14.292Z,22.25
2022-11-14T19:46:47.526Z,19.17
2022-11-14T19:49:18.430Z,21.77
2022-11-14T19:51:48.956Z,20.75
2022-11-14T19:54:21.409Z,22.77
2022-11-14T19:56:51.754Z,21.85
2022-11-14T19:59:24.423Z,23.08
2022-11-14T20:01:55.755Z,22.42
2022-11-14T20:04:25.809Z,23.83
2022-11-14T20:06:56.710Z,21.27
2022-11-14T20:09:29.287Z,22.70
2022-11-14T20:12:00.238Z,22.00
2022-11-14T20:14:30.195Z,23.48
2022-11-14T20:17:00.088Z,21.63
2022-11-14T20:19:30.347Z,23.17
2022-11-14T20:22:00.271Z,21.88
2022-11-14T20:24:32.766Z,23.95
2022-11-14T20:27:02.688Z,25.23
2022-11-14T20:29:33.181Z,21.92
2022-11-14T20:32:03.487Z,22.05
2022-11-14T20:34:34.586Z,24.52
2022-11-14T20:37:11.150Z,26.00
2022-11-14T20:39:44.380Z,24.75
2022-11-14T20:42:14.313Z,22.73
2022-11-14T20:44:44.242Z,24.42
2022-11-14T20:47:14.386Z,23.88
2022-11-14T20:49:45.123Z,23.98
2022-11-14T20:52:15.951Z,23.98
2022-11-14T20:54:48.444Z,24.27
2022-11-14T20:57:18.341Z,24.83
2022-11-14T20:59:48.235Z,24.92
2022-11-14T21:02:18.199Z,24.33
2022-11-14T21:04:48.115Z,23.92
2022-11-14T21:07:17.947Z,26.05
2022-11-14T21:10:10.398Z,23.52
2022-11-14T21:12:41.193Z,23.75
2022-11-14T21:15:13.555Z,24.50
2022-11-14T21:17:43.374Z,24.08
2022-11-14T21:20:14.323Z,25.05
2022-11-14T21:22:44.507Z,26.48
2022-11-14T21:25:16.942Z,26.60
2022-11-14T21:27:46.780Z,25.98
2022-11-14T21:30:17.246Z,24.88
2022-11-14T21:32:47.088Z,24.65
2022-11-14T21:35:17.103Z,24.95
2022-11-14T21:37:47.024Z,23.20
2022-11-14T21:40:19.677Z,24.60
2022-11-14T21:42:49.884Z,24.63
2022-11-14T21:45:19.927Z,24.20
2022-11-14T21:47:49.754Z,23.30
2022-11-14T21:50:20.102Z,23.70
2022-11-14T21:52:49.938Z,25.80
2022-11-14T21:55:22.431Z,26.35
2022-11-14T21:57:56.439Z,26.10
2022-11-14T22:00:26.260Z,26.30
2022-11-14T22:03:08.627Z,26.75
2022-11-14T22:05:38.439Z,23.58
2022-11-14T22:08:08.717Z,24.80
2022-11-14T22:10:41.139Z,24.80
2022-11-14T22:13:10.973Z,25.08
2022-11-14T22:15:40.814Z,24.58
2022-11-14T22:18:10.619Z,25.63
2022-11-14T22:20:40.488Z,25.17
2022-11-14T22:23:10.357Z,24.83
2022-11-14T22:25:42.765Z,25.20
2022-11-14T22:28:12.588Z,26.42
2022-11-14T22:30:42.672Z,25.75
2022-11-14T22:33:12.519Z,26.60
2022-11-14T22:35:42.364Z,25.42
2022-11-14T22:38:12.169Z,26.13
2022-11-14T22:40:44.758Z,27.05
2022-11-14T22:43:14.843Z,26.10
2022-11-14T22:45:44.668Z,27.25
2022-11-14T22:48:14.522Z,25.48
2022-11-14T22:50:44.323Z,25.88
2022-11-14T22:53:14.305Z,25.23
2022-11-14T22:55:52.270Z,24.58
2022-11-14T22:58:22.178Z,26.73
2022-11-14T23:00:53.045Z,29.25
2022-11-14T23:03:24.554Z,25.63
2022-11-14T23:05:54.501Z,27.25
2022-11-14T23:08:24.474Z,25.70
2022-11-14T23:10:56.921Z,24.30
2022-11-14T23:13:26.734Z,26.17
2022-11-14T23:15:56.577Z,27.58
2022-11-14T23:18:26.619Z,26.17
2022-11-14T23:20:56.480Z,25.90
2022-11-14T23:23:26.290Z,25.65
2022-11-14T23:25:58.725Z,25.50
2022-11-14T23:28:28.541Z,27.58
2022-11-14T23:30:59.318Z,27.48
2022-11-14T23:33:30.017Z,25.40
2022-11-14T23:36:00.086Z,27.70
2022-11-14T23:38:30.665Z,26.95
2022-11-14T23:41:04.751Z,25.23
2022-11-14T23:43:34.948Z,26.50
2022-11-14T23:46:04.943Z,25.90
2022-11-14T23:48:34.773Z,24.88
2022-11-14T23:51:04.578Z,26.45
2022-11-14T23:53:34.637Z,25.52
2022-11-14T23:56:07.924Z,26.08
2022-11-14T23:58:37.766Z,26.52
